createdAt,value
2018-08-27T00:02:03.911Z,17.00
2018-08-27T00:04:31.267Z,16.80
2018-08-27T00:06:58.589Z,16.80
2018-08-27T00:09:25.960Z,16.90
2018-08-27T00:11:53.245Z,17.00
2018-08-27T00:14:20.596Z,17.10
2018-08-27T00:16:47.938Z,17.20
2018-08-27T00:19:15.241Z,17.10
2018-08-27T00:21:42.546Z,17.00
2018-08-27T00:24:09.826Z,17.00
2018-08-27T00:26:37.150Z,17.10
2018-08-27T00:29:04.451Z,17.20
2018-08-27T00:31:31.790Z,17.30
2018-08-27T00:33:59.110Z,17.40
2018-08-27T00:36:26.406Z,17.40
2018-08-27T00:38:53.721Z,17.50
2018-08-27T00:41:21.027Z,17.50
2018-08-27T00:43:48.372Z,17.60
2018-08-27T00:46:15.707Z,17.50
2018-08-27T00:48:43.015Z,17.40
2018-08-27T00:51:10.342Z,17.30
2018-08-27T00:53:37.662Z,17.30
2018-08-27T00:56:05.523Z,17.30
2018-08-27T00:58:32.814Z,17.40
2018-08-27T01:01:00.119Z,17.50
2018-08-27T01:03:27.441Z,17.60
2018-08-27T01:05:54.725Z,17.60
2018-08-27T01:08:22.048Z,17.70
2018-08-27T01:10:49.447Z,17.70
2018-08-27T01:13:16.789Z,17.80
2018-08-27T01:15:44.078Z,17.80
2018-08-27T01:18:11.379Z,17.80
2018-08-27T01:20:38.693Z,17.80
2018-08-27T01:23:05.984Z,17.90
2018-08-27T01:25:33.287Z,18.00
2018-08-27T01:28:07.366Z,18.00
2018-08-27T01:30:34.696Z,17.90
2018-08-27T01:33:02.003Z,17.80
2018-08-27T01:35:29.304Z,17.80
2018-08-27T01:37:56.601Z,17.80
2018-08-27T01:40:23.904Z,17.80
2018-08-27T01:42:51.224Z,17.70
2018-08-27T01:45:18.522Z,17.80
2018-08-27T01:47:45.887Z,17.90
2018-08-27T01:50:13.204Z,18.00
2018-08-27T01:52:40.494Z,18.00
2018-08-27T01:55:07.822Z,17.90
2018-08-27T01:57:35.153Z,17.90
2018-08-27T02:00:02.447Z,18.00
2018-08-27T02:02:29.761Z,18.10
2018-08-27T02:04:57.071Z,18.00
2018-08-27T02:07:24.372Z,17.90
2018-08-27T02:09:51.693Z,17.90
2018-08-27T02:12:19.002Z,17.90
2018-08-27T02:14:46.312Z,17.90
2018-08-27T02:17:13.590Z,18.00
2018-08-27T02:19:40.917Z,18.10
2018-08-27T02:22:08.246Z,18.10
2018-08-27T02:24:35.566Z,18.10
2018-08-27T02:27:02.882Z,18.00
2018-08-27T02:29:30.190Z,18.10
2018-08-27T02:31:57.516Z,18.10
2018-08-27T02:34:24.865Z,18.00
2018-08-27T02:36:52.193Z,18.00
2018-08-27T02:39:19.526Z,17.90
2018-08-27T02:41:46.889Z,18.00
2018-08-27T02:44:14.212Z,18.00
2018-08-27T02:46:41.555Z,18.10
2018-08-27T02:49:08.871Z,18.00
2018-08-27T02:51:36.216Z,18.00
2018-08-27T02:54:03.583Z,17.90
2018-08-27T02:56:30.948Z,17.90
2018-08-27T02:58:58.245Z,17.90
2018-08-27T03:01:25.560Z,17.80
2018-08-27T03:03:52.894Z,17.80
2018-08-27T03:06:20.216Z,17.80
2018-08-27T03:08:47.543Z,17.90
2018-08-27T03:11:14.901Z,17.90
2018-08-27T03:13:42.184Z,17.90
2018-08-27T03:16:09.570Z,17.90
2018-08-27T03:18:36.927Z,17.90
2018-08-27T03:21:04.210Z,17.90
2018-08-27T03:23:31.542Z,17.90
2018-08-27T03:25:58.827Z,17.90
2018-08-27T03:28:26.122Z,17.80
2018-08-27T03:30:53.455Z,17.80
2018-08-27T03:33:20.743Z,17.70
2018-08-27T03:35:48.113Z,17.70
2018-08-27T03:38:15.438Z,17.70
2018-08-27T03:40:42.785Z,17.70
2018-08-27T03:43:10.030Z,17.80
2018-08-27T03:45:37.341Z,17.80
2018-08-27T03:48:04.763Z,17.80
2018-08-27T03:50:32.080Z,17.90
2018-08-27T03:52:59.390Z,17.90
2018-08-27T03:55:26.700Z,17.90
2018-08-27T03:57:54.018Z,17.90
2018-08-27T04:00:21.359Z,18.00
2018-08-27T04:02:48.742Z,18.00
2018-08-27T04:05:16.098Z,18.00
2018-08-27T04:07:43.397Z,17.90
2018-08-27T04:10:10.699Z,18.00
2018-08-27T04:12:37.987Z,18.00
2018-08-27T04:15:05.308Z,17.90
2018-08-27T04:17:32.620Z,17.90
2018-08-27T04:19:59.905Z,17.90
2018-08-27T04:22:27.247Z,17.90
2018-08-27T04:24:54.543Z,18.00
2018-08-27T04:27:21.852Z,17.90
2018-08-27T04:29:49.187Z,17.90
2018-08-27T04:32:16.527Z,17.90
2018-08-27T04:34:43.867Z,18.00
2018-08-27T04:37:11.157Z,18.00
2018-08-27T04:39:38.443Z,18.00
2018-08-27T04:42:05.761Z,18.00
2018-08-27T04:44:33.047Z,18.00
2018-08-27T04:47:00.383Z,18.00
2018-08-27T04:49:27.697Z,17.90
2018-08-27T04:51:55.010Z,17.80
2018-08-27T04:54:22.357Z,17.80
2018-08-27T04:56:49.695Z,17.70
2018-08-27T04:59:17.011Z,17.60
2018-08-27T05:01:44.331Z,17.60
2018-08-27T05:04:11.632Z,17.60
2018-08-27T05:06:38.979Z,17.60
2018-08-27T05:09:06.983Z,17.60
2018-08-27T05:11:34.289Z,17.60
2018-08-27T05:14:01.598Z,17.60
2018-08-27T05:16:28.892Z,17.60
2018-08-27T05:18:56.214Z,17.50
2018-08-27T05:21:23.559Z,17.50
2018-08-27T05:23:50.851Z,17.50
2018-08-27T05:26:18.198Z,17.60
2018-08-27T05:28:45.726Z,17.70
2018-08-27T05:31:13.044Z,17.70
2018-08-27T05:33:40.367Z,17.60
2018-08-27T05:36:07.753Z,17.70
2018-08-27T05:38:35.097Z,17.70
2018-08-27T05:41:02.422Z,17.60
2018-08-27T05:43:29.763Z,17.60
2018-08-27T05:45:57.077Z,17.70
2018-08-27T05:48:24.402Z,17.70
2018-08-27T05:50:51.747Z,17.50
2018-08-27T05:53:19.275Z,17.40
2018-08-27T05:55:46.612Z,17.40
2018-08-27T05:58:13.939Z,17.40
2018-08-27T06:00:41.586Z,17.40
2018-08-27T06:03:08.954Z,17.20
2018-08-27T06:05:36.668Z,17.10
2018-08-27T06:08:04.375Z,17.20
2018-08-27T06:10:31.692Z,17.10
2018-08-27T06:12:59.033Z,17.00
2018-08-27T06:15:26.367Z,17.00
2018-08-27T06:17:53.666Z,16.90
2018-08-27T06:20:21.087Z,17.00
2018-08-27T06:22:48.463Z,17.00
2018-08-27T06:25:15.826Z,17.10
2018-08-27T06:27:43.236Z,17.20
2018-08-27T06:30:10.557Z,17.30
2018-08-27T06:32:37.982Z,17.40
2018-08-27T06:35:05.380Z,17.40
2018-08-27T06:37:32.684Z,17.50
2018-08-27T06:39:59.995Z,17.50
2018-08-27T06:42:27.308Z,17.50
2018-08-27T06:44:54.668Z,17.50
2018-08-27T06:47:21.992Z,17.40
2018-08-27T06:49:49.332Z,17.40
2018-08-27T06:52:16.689Z,17.60
2018-08-27T06:54:43.991Z,17.50
2018-08-27T06:57:11.318Z,17.50
2018-08-27T06:59:38.625Z,17.60
2018-08-27T07:02:05.991Z,17.70
2018-08-27T07:04:33.250Z,17.70
2018-08-27T07:07:00.577Z,17.90
2018-08-27T07:09:27.931Z,17.90
2018-08-27T07:11:55.246Z,17.90
2018-08-27T07:14:22.543Z,18.00
2018-08-27T07:16:49.883Z,18.00
2018-08-27T07:19:17.217Z,18.10
2018-08-27T07:21:44.675Z,18.10
2018-08-27T07:24:12.038Z,18.20
2018-08-27T07:26:39.383Z,18.30
2018-08-27T07:29:06.757Z,18.30
2018-08-27T07:31:34.096Z,18.40
2018-08-27T07:34:01.419Z,18.40
2018-08-27T07:36:28.798Z,18.30
2018-08-27T07:38:56.105Z,18.10
2018-08-27T07:41:23.460Z,18.10
2018-08-27T07:43:50.783Z,18.00
2018-08-27T07:46:18.131Z,17.80
2018-08-27T07:48:45.482Z,17.80
2018-08-27T07:51:12.976Z,17.80
2018-08-27T07:53:40.265Z,17.70
2018-08-27T07:56:07.622Z,17.70
2018-08-27T07:58:34.964Z,17.70
2018-08-27T08:01:02.335Z,17.50
2018-08-27T08:03:29.671Z,17.40
2018-08-27T08:05:57.007Z,17.30
2018-08-27T08:08:24.332Z,17.30
2018-08-27T08:10:51.628Z,17.20
2018-08-27T08:13:18.934Z,17.20
2018-08-27T08:15:46.274Z,17.30
2018-08-27T08:18:13.611Z,17.40
2018-08-27T08:20:40.946Z,17.50
2018-08-27T08:23:08.233Z,17.60
2018-08-27T08:25:35.526Z,17.70
2018-08-27T08:28:02.854Z,17.80
2018-08-27T08:30:30.150Z,17.90
2018-08-27T08:32:57.431Z,17.80
2018-08-27T08:35:24.783Z,17.90
2018-08-27T08:37:52.069Z,17.80
2018-08-27T08:40:19.419Z,17.80
2018-08-27T08:42:46.719Z,17.80
2018-08-27T08:45:14.031Z,17.70
2018-08-27T08:47:41.336Z,17.70
2018-08-27T08:50:08.658Z,17.80
2018-08-27T08:52:35.970Z,17.80
2018-08-27T08:55:03.418Z,17.90
2018-08-27T08:57:30.703Z,18.00
2018-08-27T08:59:58.019Z,18.10
2018-08-27T09:02:25.315Z,18.20
2018-08-27T09:04:52.615Z,18.20
2018-08-27T09:07:19.954Z,18.20
2018-08-27T09:09:47.349Z,18.30
2018-08-27T09:12:15.113Z,18.20
2018-08-27T09:14:42.399Z,18.30
2018-08-27T09:17:09.752Z,18.30
2018-08-27T09:19:37.091Z,18.40
2018-08-27T09:22:04.462Z,18.60
2018-08-27T09:24:31.781Z,18.60
2018-08-27T09:26:59.086Z,18.60
2018-08-27T09:29:26.391Z,18.70
2018-08-27T09:31:53.708Z,18.90
2018-08-27T09:34:20.993Z,18.90
2018-08-27T09:36:48.340Z,19.00
2018-08-27T09:39:15.646Z,19.20
2018-08-27T09:41:43.097Z,19.30
2018-08-27T09:44:10.337Z,19.30
2018-08-27T09:46:37.667Z,19.30
2018-08-27T09:49:04.989Z,19.40
2018-08-27T09:51:32.328Z,19.40
2018-08-27T09:53:59.628Z,19.40
2018-08-27T09:56:26.915Z,19.60
2018-08-27T09:58:54.269Z,19.70
2018-08-27T10:01:21.519Z,19.80
2018-08-27T10:03:48.851Z,19.70
2018-08-27T10:06:16.261Z,19.60
2018-08-27T10:08:43.718Z,19.60
2018-08-27T10:11:11.065Z,19.70
2018-08-27T10:13:38.378Z,19.80
2018-08-27T10:16:05.729Z,19.90
2018-08-27T10:18:33.026Z,20.00
2018-08-27T10:21:00.339Z,20.00
2018-08-27T10:23:27.617Z,20.00
2018-08-27T10:25:54.934Z,20.00
2018-08-27T10:28:22.295Z,20.00
2018-08-27T10:30:49.704Z,20.10
2018-08-27T10:33:17.078Z,20.30
2018-08-27T10:35:44.419Z,20.30
2018-08-27T10:38:11.723Z,20.30
2018-08-27T10:40:39.045Z,20.50
2018-08-27T10:43:06.378Z,20.50
2018-08-27T10:45:33.697Z,20.50
2018-08-27T10:48:01.286Z,20.50
2018-08-27T10:50:28.600Z,20.60
2018-08-27T10:52:56.002Z,20.70
2018-08-27T10:55:23.294Z,20.70
2018-08-27T10:57:50.630Z,20.60
2018-08-27T11:00:18.024Z,20.60
2018-08-27T11:02:45.348Z,20.60
2018-08-27T11:05:12.737Z,20.70
2018-08-27T11:07:40.002Z,20.50
2018-08-27T11:10:07.311Z,20.50
2018-08-27T11:12:34.685Z,20.50
2018-08-27T11:15:01.978Z,20.60
2018-08-27T11:17:29.292Z,20.50
2018-08-27T11:19:56.689Z,20.60
2018-08-27T11:22:24.306Z,20.70
2018-08-27T11:24:51.670Z,20.60
2018-08-27T11:27:18.991Z,20.50
2018-08-27T11:29:46.402Z,20.40
2018-08-27T11:32:13.698Z,20.30
2018-08-27T11:34:41.022Z,20.30
2018-08-27T11:37:08.340Z,20.30
2018-08-27T11:39:35.670Z,20.30
2018-08-27T11:42:02.979Z,20.20
2018-08-27T11:44:30.291Z,20.10
2018-08-27T11:46:57.581Z,20.20
2018-08-27T11:49:24.902Z,20.10
2018-08-27T11:51:52.211Z,20.10
2018-08-27T11:54:19.555Z,20.20
2018-08-27T11:56:46.887Z,20.40
2018-08-27T11:59:14.174Z,20.40
2018-08-27T12:01:41.502Z,20.50
2018-08-27T12:04:08.810Z,20.60
2018-08-27T12:06:36.151Z,20.70
2018-08-27T12:09:04.529Z,20.70
2018-08-27T12:11:31.843Z,20.80
2018-08-27T12:13:59.171Z,21.00
2018-08-27T12:16:26.487Z,21.30
2018-08-27T12:18:53.805Z,21.40
2018-08-27T12:21:21.107Z,21.60
2018-08-27T12:23:48.493Z,21.70
2018-08-27T12:26:15.775Z,21.60
2018-08-27T12:28:43.077Z,21.70
2018-08-27T12:31:10.406Z,21.70
2018-08-27T12:33:37.699Z,21.80
2018-08-27T12:36:05.006Z,21.90
2018-08-27T12:38:32.325Z,22.00
2018-08-27T12:40:59.782Z,22.00
2018-08-27T12:43:27.106Z,22.00
2018-08-27T12:45:54.426Z,21.90
2018-08-27T12:48:21.771Z,22.00
2018-08-27T12:50:49.184Z,22.00
2018-08-27T12:53:16.494Z,22.10
2018-08-27T12:55:43.823Z,22.30
2018-08-27T12:58:11.208Z,22.20
2018-08-27T13:00:38.571Z,22.00
2018-08-27T13:03:05.901Z,21.80
2018-08-27T13:05:33.250Z,22.00
2018-08-27T13:08:00.610Z,22.10
2018-08-27T13:10:27.902Z,22.20
2018-08-27T13:12:55.287Z,21.70
2018-08-27T13:15:22.602Z,21.60
2018-08-27T13:17:49.978Z,21.60
2018-08-27T13:20:17.344Z,21.70
2018-08-27T13:22:44.723Z,21.70
2018-08-27T13:25:12.075Z,21.70
2018-08-27T13:27:39.386Z,21.70
2018-08-27T13:30:06.763Z,21.60
2018-08-27T13:32:34.240Z,21.10
2018-08-27T13:35:01.546Z,21.10
2018-08-27T13:37:28.885Z,21.30
2018-08-27T13:39:56.220Z,21.70
2018-08-27T13:42:23.583Z,22.00
2018-08-27T13:44:50.962Z,22.20
2018-08-27T13:47:18.352Z,22.30
2018-08-27T13:49:46.013Z,22.30
2018-08-27T13:52:13.389Z,22.40
2018-08-27T13:54:40.728Z,22.60
2018-08-27T13:57:08.050Z,22.60
2018-08-27T13:59:35.413Z,22.40
2018-08-27T14:02:02.758Z,22.30
2018-08-27T14:04:30.064Z,22.00
2018-08-27T14:06:57.375Z,22.00
2018-08-27T14:09:24.939Z,22.00
2018-08-27T14:11:52.287Z,22.10
2018-08-27T14:14:19.625Z,22.30
2018-08-27T14:16:47.031Z,22.30
2018-08-27T14:19:14.436Z,22.30
2018-08-27T14:21:41.689Z,22.40
2018-08-27T14:24:09.098Z,22.50
2018-08-27T14:26:36.451Z,22.40
2018-08-27T14:29:03.803Z,22.40
2018-08-27T14:31:31.200Z,22.40
2018-08-27T14:33:58.544Z,22.40
2018-08-27T14:36:25.862Z,22.30
2018-08-27T14:38:53.347Z,22.40
2018-08-27T14:41:20.585Z,22.50
2018-08-27T14:43:47.964Z,22.60
2018-08-27T14:46:15.404Z,22.70
2018-08-27T14:48:42.717Z,22.80
2018-08-27T14:51:10.103Z,22.80
2018-08-27T14:53:37.488Z,22.90
2018-08-27T14:56:04.855Z,22.80
2018-08-27T14:58:32.162Z,22.60
2018-08-27T15:00:59.500Z,22.60
2018-08-27T15:03:26.905Z,22.70
2018-08-27T15:05:54.261Z,22.80
2018-08-27T15:08:21.596Z,22.80
2018-08-27T15:10:48.929Z,22.90
2018-08-27T15:13:16.267Z,23.10
2018-08-27T15:15:43.835Z,23.20
2018-08-27T15:18:11.172Z,23.30
2018-08-27T15:20:38.586Z,23.50
2018-08-27T15:23:05.893Z,23.50
2018-08-27T15:25:33.249Z,23.50
2018-08-27T15:28:00.624Z,23.60
2018-08-27T15:30:28.074Z,23.70
2018-08-27T15:32:55.419Z,23.80
2018-08-27T15:35:22.719Z,23.70
2018-08-27T15:37:50.200Z,23.50
2018-08-27T15:40:17.600Z,23.30
2018-08-27T15:42:44.983Z,23.20
2018-08-27T15:45:12.301Z,23.20
2018-08-27T15:47:39.645Z,23.30
2018-08-27T15:50:07.445Z,23.20
2018-08-27T15:52:34.831Z,23.10
2018-08-27T15:55:02.202Z,23.10
2018-08-27T15:57:29.474Z,23.30
2018-08-27T15:59:56.808Z,23.50
2018-08-27T16:02:24.090Z,23.50
2018-08-27T16:04:51.407Z,23.40
2018-08-27T16:07:18.804Z,23.40
2018-08-27T16:09:46.193Z,23.50
2018-08-27T16:12:13.582Z,23.70
2018-08-27T16:14:41.021Z,24.00
2018-08-27T16:17:08.337Z,24.20
2018-08-27T16:19:35.701Z,24.30
2018-08-27T16:22:03.011Z,23.90
2018-08-27T16:24:30.338Z,23.70
2018-08-27T16:26:57.667Z,23.50
2018-08-27T16:29:25.063Z,23.80
2018-08-27T16:31:52.400Z,24.20
2018-08-27T16:34:19.755Z,24.60
2018-08-27T16:36:47.160Z,24.90
2018-08-27T16:39:14.458Z,25.40
2018-08-27T16:41:41.807Z,26.00
2018-08-27T16:44:09.141Z,26.40
2018-08-27T16:46:36.619Z,26.70
2018-08-27T16:49:03.918Z,26.90
2018-08-27T16:51:31.233Z,27.00
2018-08-27T16:53:58.636Z,27.00
2018-08-27T16:56:25.942Z,26.80
2018-08-27T16:58:53.240Z,26.10
2018-08-27T17:01:20.631Z,25.60
2018-08-27T17:03:47.934Z,25.40
2018-08-27T17:06:15.353Z,25.50
2018-08-27T17:08:42.647Z,25.70
2018-08-27T17:11:09.971Z,25.40
2018-08-27T17:13:37.282Z,25.10
2018-08-27T17:16:04.784Z,24.70
2018-08-27T17:18:32.128Z,24.30
2018-08-27T17:20:59.443Z,24.00
2018-08-27T17:23:26.745Z,23.70
2018-08-27T17:25:54.122Z,23.50
2018-08-27T17:28:21.483Z,23.20
2018-08-27T17:30:48.847Z,23.00
2018-08-27T17:33:16.158Z,22.90
2018-08-27T17:35:43.522Z,22.70
2018-08-27T17:38:10.843Z,22.60
2018-08-27T17:40:38.183Z,22.50
2018-08-27T17:43:05.589Z,22.40
2018-08-27T17:45:32.951Z,22.40
2018-08-27T17:48:00.228Z,22.30
2018-08-27T17:50:27.549Z,22.20
2018-08-27T17:52:54.861Z,22.20
2018-08-27T17:55:22.333Z,22.10
2018-08-27T17:57:49.626Z,22.10
2018-08-27T18:00:17.071Z,22.00
2018-08-27T18:02:44.371Z,22.00
2018-08-27T18:05:11.807Z,22.00
2018-08-27T18:07:39.097Z,21.90
2018-08-27T18:10:06.397Z,21.90
2018-08-27T18:12:33.739Z,21.90
2018-08-27T18:15:01.137Z,21.90
2018-08-27T18:17:28.470Z,21.90
2018-08-27T18:19:55.797Z,21.90
2018-08-27T18:22:23.170Z,21.80
2018-08-27T18:24:50.609Z,21.90
2018-08-27T18:27:17.986Z,21.80
2018-08-27T18:29:46.235Z,21.80
2018-08-27T18:32:13.671Z,21.80
2018-08-27T18:34:41.013Z,21.80
2018-08-27T18:37:08.334Z,21.70
2018-08-27T18:39:35.699Z,21.60
2018-08-27T18:42:03.137Z,21.50
2018-08-27T18:44:30.465Z,21.40
2018-08-27T18:46:57.821Z,21.40
2018-08-27T18:52:01.034Z,21.40
2018-08-27T18:54:28.340Z,21.30
2018-08-27T18:56:55.652Z,21.20
2018-08-27T18:59:23.067Z,21.10
2018-08-27T19:01:50.405Z,21.00
2018-08-27T19:04:17.813Z,21.00
2018-08-27T19:06:45.544Z,21.00
2018-08-27T19:09:12.799Z,20.90
2018-08-27T19:11:40.109Z,20.90
2018-08-27T19:14:07.503Z,20.80
2018-08-27T19:16:34.922Z,20.80
2018-08-27T19:19:02.392Z,20.80
2018-08-27T19:21:29.657Z,20.70
2018-08-27T19:23:57.099Z,20.70
2018-08-27T19:26:24.539Z,20.70
2018-08-27T19:28:51.919Z,20.70
2018-08-27T19:31:19.267Z,20.80
2018-08-27T19:33:46.626Z,20.70
2018-08-27T19:36:14.056Z,20.70
2018-08-27T19:38:41.231Z,20.70
2018-08-27T19:41:08.517Z,20.70
2018-08-27T19:43:35.839Z,20.70
2018-08-27T19:46:03.237Z,20.70
2018-08-27T19:48:30.447Z,20.60
2018-08-27T19:50:57.758Z,20.60
2018-08-27T19:53:25.116Z,20.50
2018-08-27T19:55:52.620Z,20.50
2018-08-27T19:58:19.952Z,20.40
2018-08-27T20:00:47.281Z,20.40
2018-08-27T20:03:14.574Z,20.30
2018-08-27T20:05:41.905Z,20.30
2018-08-27T20:08:09.197Z,20.20
2018-08-27T20:10:36.578Z,20.20
2018-08-27T20:13:03.901Z,20.30
2018-08-27T20:15:31.296Z,20.10
2018-08-27T20:17:58.603Z,20.10
2018-08-27T20:20:25.990Z,20.10
2018-08-27T20:22:53.268Z,20.10
2018-08-27T20:25:20.851Z,20.10
2018-08-27T20:27:48.230Z,20.10
2018-08-27T20:30:15.576Z,20.10
2018-08-27T20:32:42.858Z,20.20
2018-08-27T20:35:10.159Z,20.10
2018-08-27T20:37:37.486Z,20.10
2018-08-27T20:40:04.876Z,20.20
2018-08-27T20:42:32.219Z,20.20
2018-08-27T20:44:59.579Z,20.20
2018-08-27T20:47:26.901Z,20.20
2018-08-27T20:49:54.209Z,20.10
2018-08-27T20:52:21.548Z,20.10
2018-08-27T20:54:49.185Z,20.00
2018-08-27T20:57:16.575Z,20.00
2018-08-27T20:59:43.811Z,19.90
2018-08-27T21:02:11.119Z,19.70
2018-08-27T21:04:38.474Z,19.60
2018-08-27T21:07:05.796Z,19.60
2018-08-27T21:09:33.085Z,19.60
2018-08-27T21:12:01.403Z,19.50
2018-08-27T21:15:01.074Z,19.50
2018-08-27T21:17:28.405Z,19.50
2018-08-27T21:19:55.755Z,19.50
2018-08-27T21:22:23.054Z,19.40
2018-08-27T21:24:50.368Z,19.40
2018-08-27T21:27:17.711Z,19.40
2018-08-27T21:29:45.027Z,19.40
2018-08-27T21:32:12.307Z,19.20
2018-08-27T21:34:39.615Z,19.10
2018-08-27T21:37:06.963Z,19.10
2018-08-27T21:39:34.276Z,19.10
2018-08-27T21:42:01.563Z,19.20
2018-08-27T21:44:28.887Z,19.20
2018-08-27T21:46:56.180Z,19.10
2018-08-27T21:49:23.499Z,19.00
2018-08-27T21:51:50.805Z,19.00
2018-08-27T21:54:18.111Z,19.20
2018-08-27T21:56:45.432Z,19.00
2018-08-27T21:59:12.767Z,18.80
2018-08-27T22:01:40.071Z,18.60
2018-08-27T22:04:07.393Z,18.60
2018-08-27T22:06:34.690Z,18.60
2018-08-27T22:09:01.998Z,18.60
2018-08-27T22:11:29.287Z,18.60
2018-08-27T22:13:56.590Z,18.60
2018-08-27T22:16:23.943Z,18.50
2018-08-27T22:18:51.263Z,18.40
2018-08-27T22:21:18.623Z,18.40
2018-08-27T22:23:45.920Z,18.40
2018-08-27T22:26:13.230Z,18.40
2018-08-27T22:28:40.545Z,18.40
2018-08-27T22:31:07.865Z,18.10
2018-08-27T22:33:35.165Z,18.00
2018-08-27T22:36:02.475Z,18.10
2018-08-27T22:38:29.882Z,18.00
2018-08-27T22:40:57.913Z,18.00
2018-08-27T22:43:25.226Z,18.10
2018-08-27T22:45:52.521Z,18.10
2018-08-27T22:48:19.823Z,18.10
2018-08-27T22:50:47.147Z,18.00
2018-08-27T22:53:14.445Z,18.00
2018-08-27T22:55:41.739Z,18.00
2018-08-27T22:58:09.433Z,17.90
2018-08-27T23:00:36.808Z,18.00
2018-08-27T23:03:04.261Z,17.90
2018-08-27T23:05:31.564Z,17.90
2018-08-27T23:07:58.867Z,18.00
2018-08-27T23:10:26.167Z,18.00
2018-08-27T23:12:53.460Z,18.00
2018-08-27T23:15:20.815Z,18.10
2018-08-27T23:17:48.120Z,18.10
2018-08-27T23:20:16.465Z,18.10
2018-08-27T23:22:43.783Z,18.10
2018-08-27T23:25:11.102Z,18.00
2018-08-27T23:27:38.410Z,18.00
2018-08-27T23:30:05.716Z,17.90
2018-08-27T23:32:33.083Z,17.90
2018-08-27T23:35:00.378Z,17.80
2018-08-27T23:37:27.701Z,17.80
2018-08-27T23:39:55.037Z,17.70
2018-08-27T23:42:22.313Z,17.70
2018-08-27T23:44:49.636Z,17.70
2018-08-27T23:47:16.980Z,17.70
2018-08-27T23:49:44.360Z,17.90
2018-08-27T23:52:11.698Z,17.80
2018-08-27T23:54:39.003Z,17.80
2018-08-27T23:57:06.334Z,17.70
2018-08-27T23:59:33.727Z,17.50
